Jekyll Island, Georgia
Current Conditions -  °F | °C
As of 10:53 PM on Tuesday 21 Oct 2014 (Local Time) from KSSI Reporting Station
Clear Clear  
Wind Chill: 64°   Ceiling: Unl
Heat Index: 64°   Visibility: 10mi
Dew Point: 59°   Wind: 3mph
Humidity: 84%   Direction: 270°W
Pressure: 29.97"   Gusts: NA
Location:  31.07°N, 81.41°W
Report Text: KSSI 220253Z AUTO 27003KT 10SM CLR 18/15 A2997 RMK AO2 SLP148 T01780150 51017
Loading
Personal Weather Stations






























Interactive Weather Map
Tropical Storm Tracking
New forecast layout! Learn more

10-Day Weather Forecast

Advertisements
Track Severe Weather on mobile